Time;durP1;ratioP1;P1;durP2;ratioP2;P2;SDS_P1;SDS_P2;PMS_P1;PMS_P2;Temp;Humidity;BMP_temperature;BMP_pressure;BME280_temperature;BME280_humidity;BME280_pressure;Samples;Min_cycle;Max_cycle;Signal;HPM_P1;HPM_P2
2023/10/21 00:01:06;;;;;;;3.03;2.70;;;14.40;99.90;;;;;;10530565;28;20228;-77
2023/10/21 00:06:29;;;;;;;2.60;2.50;;;14.30;99.90;;;;;;10526276;28;20696;-77
2023/10/21 00:11:52;;;;;;;2.40;2.30;;;14.20;99.90;;;;;;10524848;28;20225;-77
2023/10/21 00:17:14;;;;;;;2.10;2.00;;;14.20;99.90;;;;;;10517769;28;20232;-77
2023/10/21 00:22:38;;;;;;;2.00;1.90;;;14.20;99.90;;;;;;10505921;28;20217;-77
2023/10/21 00:28:00;;;;;;;1.97;1.87;;;14.40;99.90;;;;;;10516802;28;20216;-77
2023/10/21 00:33:22;;;;;;;1.80;1.70;;;14.50;99.90;;;;;;10495468;28;20221;-77
2023/10/21 00:38:45;;;;;;;1.83;1.73;;;14.60;99.90;;;;;;10507729;28;20586;-77
2023/10/21 00:44:08;;;;;;;1.80;1.80;;;14.70;99.90;;;;;;10493309;28;20220;-77
2023/10/21 00:49:32;;;;;;;1.80;1.70;;;14.80;99.90;;;;;;10519371;28;20216;-77
2023/10/21 00:54:59;;;;;;;1.60;1.50;;;14.80;99.90;;;;;;10501577;28;20227;-76
2023/10/21 01:00:21;;;;;;;1.57;1.57;;;14.80;99.90;;;;;;10481772;28;20209;-77
2023/10/21 01:05:44;;;;;;;1.43;1.43;;;14.80;99.90;;;;;;10497476;28;20583;-77
2023/10/21 01:11:07;;;;;;;2.10;2.00;;;14.90;99.90;;;;;;10527975;28;20422;-77
2023/10/21 01:16:29;;;;;;;1.57;1.57;;;14.80;99.90;;;;;;10493610;28;20197;-77
2023/10/21 01:21:52;;;;;;;1.83;1.77;;;14.90;99.90;;;;;;10499652;28;20588;-77
2023/10/21 01:27:16;;;;;;;2.23;2.13;;;14.90;99.90;;;;;;10478166;28;20205;-77
2023/10/21 01:32:38;;;;;;;2.00;1.90;;;14.90;99.90;;;;;;10479614;28;20243;-77
2023/10/21 01:38:00;;;;;;;2.40;2.30;;;14.90;99.90;;;;;;10518801;28;20200;-77
2023/10/21 01:43:24;;;;;;;2.20;2.10;;;14.90;99.90;;;;;;10505497;28;20235;-77
2023/10/21 01:48:46;;;;;;;2.10;2.00;;;14.90;99.90;;;;;;10506030;28;20208;-77
2023/10/21 01:54:09;;;;;;;2.00;2.00;;;14.90;99.90;;;;;;10504236;28;20289;-77
2023/10/21 01:59:32;;;;;;;2.20;2.10;;;15.00;99.90;;;;;;10499445;28;20216;-77
2023/10/21 02:04:54;;;;;;;2.33;2.23;;;15.00;99.90;;;;;;10494891;28;20230;-77
2023/10/21 02:10:17;;;;;;;2.00;2.00;;;15.00;99.90;;;;;;10506933;28;20283;-77
2023/10/21 02:15:41;;;;;;;1.80;1.80;;;15.10;99.90;;;;;;10514572;28;20256;-77
2023/10/21 02:21:05;;;;;;;2.53;1.90;;;15.00;99.90;;;;;;10525275;28;20738;-76
2023/10/21 02:26:28;;;;;;;2.30;1.97;;;15.00;99.90;;;;;;10509437;28;20193;-77
2023/10/21 02:31:51;;;;;;;2.07;1.97;;;15.10;99.90;;;;;;10508170;28;20624;-76
2023/10/21 02:37:13;;;;;;;1.90;1.90;;;15.00;99.90;;;;;;10494520;28;20220;-77
2023/10/21 02:42:37;;;;;;;2.70;2.17;;;14.90;99.90;;;;;;10531938;28;20228;-77
2023/10/21 02:48:01;;;;;;;1.90;1.90;;;14.90;99.90;;;;;;10496691;28;20259;-77
2023/10/21 02:53:23;;;;;;;2.10;2.00;;;14.90;99.90;;;;;;10521621;28;20224;-77
2023/10/21 02:58:45;;;;;;;2.53;2.40;;;14.80;99.90;;;;;;10491049;28;20201;-77
2023/10/21 03:04:09;;;;;;;2.40;2.30;;;14.80;99.90;;;;;;10518915;28;20213;-77
2023/10/21 03:09:31;;;;;;;2.70;2.50;;;14.70;99.90;;;;;;10495784;28;20273;-77
2023/10/21 03:14:53;;;;;;;2.10;2.00;;;14.60;99.90;;;;;;10506447;23;20719;-80
2023/10/21 03:20:17;;;;;;;2.13;2.13;;;14.60;99.90;;;;;;10499616;28;20197;-77
2023/10/21 03:25:39;;;;;;;2.30;2.20;;;14.50;99.90;;;;;;10475386;28;20233;-77
2023/10/21 03:31:04;;;;;;;2.40;2.30;;;14.50;99.90;;;;;;10467863;28;20196;-77
2023/10/21 03:36:27;;;;;;;2.07;1.97;;;14.50;99.90;;;;;;10471002;28;20221;-77
2023/10/21 03:41:49;;;;;;;2.23;2.03;;;14.40;99.90;;;;;;10473740;28;20217;-77
2023/10/21 03:47:11;;;;;;;2.10;2.10;;;14.50;99.90;;;;;;10470189;28;20255;-77
2023/10/21 03:52:35;;;;;;;1.93;1.93;;;14.50;99.90;;;;;;10458444;28;20221;-78
2023/10/21 03:57:58;;;;;;;1.90;1.90;;;14.50;99.90;;;;;;10478244;28;20198;-77
2023/10/21 04:03:20;;;;;;;2.30;2.30;;;14.60;99.90;;;;;;10483528;28;20689;-77
2023/10/21 04:08:44;;;;;;;2.10;2.00;;;14.70;99.90;;;;;;10492555;28;20282;-77
2023/10/21 04:14:06;;;;;;;2.40;1.90;;;14.70;99.90;;;;;;10456119;28;20221;-78
2023/10/21 04:19:28;;;;;;;2.00;2.00;;;14.70;99.90;;;;;;10489598;28;20209;-78
2023/10/21 04:24:52;;;;;;;1.90;1.90;;;14.70;99.90;;;;;;10450940;28;20213;-78
2023/10/21 04:30:14;;;;;;;1.87;1.77;;;14.70;99.90;;;;;;10486276;28;20290;-77
2023/10/21 04:35:36;;;;;;;1.93;1.93;;;14.70;99.90;;;;;;10458321;28;20216;-77
2023/10/21 04:41:00;;;;;;;2.37;2.27;;;14.80;99.90;;;;;;10485303;28;20198;-77
2023/10/21 04:46:22;;;;;;;2.93;1.97;;;14.70;99.90;;;;;;10474769;28;20202;-77
2023/10/21 04:51:45;;;;;;;2.10;2.00;;;14.80;99.90;;;;;;10474441;28;20717;-78
2023/10/21 04:57:09;;;;;;;2.20;2.10;;;14.80;99.90;;;;;;10451644;28;20209;-78
2023/10/21 05:02:31;;;;;;;2.30;2.20;;;14.80;99.90;;;;;;10475161;28;20225;-78
2023/10/21 05:07:53;;;;;;;2.73;2.30;;;14.80;99.90;;;;;;10478515;28;20349;-78
2023/10/21 05:13:17;;;;;;;2.00;1.90;;;14.80;99.90;;;;;;10471572;28;20591;-78
2023/10/21 05:18:39;;;;;;;1.83;1.83;;;14.90;99.90;;;;;;10475376;28;20201;-78
2023/10/21 05:24:01;;;;;;;1.80;1.80;;;14.90;99.90;;;;;;10464162;28;20309;-78
2023/10/21 05:29:26;;;;;;;2.00;2.00;;;15.00;99.90;;;;;;10464182;28;20209;-78
2023/10/21 05:34:49;;;;;;;2.00;2.00;;;15.00;99.90;;;;;;10479811;28;20229;-79
2023/10/21 05:40:11;;;;;;;2.30;2.20;;;15.00;99.90;;;;;;10464115;28;20206;-77
2023/10/21 05:45:36;;;;;;;2.47;2.37;;;15.00;99.90;;;;;;10486320;28;20224;-78
2023/10/21 05:51:01;;;;;;;2.40;2.30;;;15.00;99.90;;;;;;10454232;28;20233;-78
2023/10/21 05:56:23;;;;;;;3.00;2.33;;;14.90;99.90;;;;;;10476968;28;20228;-78
2023/10/21 06:01:47;;;;;;;2.20;2.20;;;14.90;99.90;;;;;;10488397;28;20236;-78
2023/10/21 06:07:09;;;;;;;2.20;2.10;;;15.00;99.90;;;;;;10471991;28;20201;-78
2023/10/21 06:12:32;;;;;;;2.47;2.30;;;14.90;99.90;;;;;;10456381;28;20236;-78
2023/10/21 06:17:56;;;;;;;2.13;2.03;;;14.90;99.90;;;;;;10461407;28;20203;-78
2023/10/21 06:23:18;;;;;;;2.40;2.30;;;14.70;99.90;;;;;;10476846;28;20611;-78
2023/10/21 06:28:41;;;;;;;2.50;2.30;;;14.70;99.90;;;;;;10458755;28;20220;-78
2023/10/21 06:34:05;;;;;;;2.40;2.30;;;14.70;99.90;;;;;;10464289;28;20235;-79
2023/10/21 06:39:27;;;;;;;1.70;1.57;;;14.70;99.90;;;;;;10466822;28;20251;-78
2023/10/21 06:44:49;;;;;;;2.20;2.10;;;14.80;99.90;;;;;;10470640;28;20217;-78
2023/10/21 06:50:13;;;;;;;2.30;2.20;;;14.80;99.90;;;;;;10467219;28;20202;-79
2023/10/21 06:55:42;;;;;;;3.53;2.20;;;14.80;99.90;;;;;;10483914;28;20229;-78
2023/10/21 07:01:04;;;;;;;1.73;1.63;;;14.80;99.90;;;;;;10490900;28;20694;-78
2023/10/21 07:06:28;;;;;;;2.40;2.30;;;14.70;99.90;;;;;;10487730;28;20599;-78
2023/10/21 07:11:50;;;;;;;1.97;1.87;;;14.80;99.90;;;;;;10491246;28;20231;-78
2023/10/21 07:17:13;;;;;;;2.10;2.00;;;14.80;99.90;;;;;;10463542;28;20221;-78
2023/10/21 07:22:37;;;;;;;2.37;2.17;;;14.80;99.90;;;;;;10486905;28;20237;-78
2023/10/21 07:27:59;;;;;;;2.30;2.20;;;14.80;99.90;;;;;;10455742;28;20635;-78
2023/10/21 07:33:22;;;;;;;3.07;2.87;;;14.90;99.90;;;;;;10492899;28;20301;-78
2023/10/21 07:38:46;;;;;;;3.47;3.17;;;15.00;99.90;;;;;;10470508;28;20193;-78
2023/10/21 07:44:08;;;;;;;3.80;3.50;;;15.00;99.90;;;;;;10488346;28;20222;-78
2023/10/21 07:49:30;;;;;;;3.43;3.23;;;15.00;99.90;;;;;;10466962;28;20585;-78
2023/10/21 07:54:55;;;;;;;2.30;2.20;;;15.20;99.90;;;;;;10482381;28;20229;-79
2023/10/21 08:00:17;;;;;;;2.03;1.93;;;15.40;99.90;;;;;;10481825;28;20674;-79
2023/10/21 08:05:40;;;;;;;2.07;1.97;;;15.60;99.90;;;;;;10475600;28;20571;-79
2023/10/21 08:11:03;;;;;;;1.83;1.73;;;15.70;99.90;;;;;;10474031;28;20618;-79
2023/10/21 08:16:26;;;;;;;2.47;1.37;;;15.70;99.90;;;;;;10489642;28;20702;-79
2023/10/21 08:21:48;;;;;;;1.77;1.67;;;15.60;99.90;;;;;;10470673;28;20225;-79
2023/10/21 08:27:11;;;;;;;1.83;1.73;;;15.70;99.90;;;;;;10466238;28;20564;-78
2023/10/21 08:32:34;;;;;;;1.23;1.23;;;15.70;99.90;;;;;;10481190;28;20221;-78
2023/10/21 08:37:56;;;;;;;2.57;2.37;;;15.70;99.90;;;;;;10470010;28;20197;-79
2023/10/21 08:43:21;;;;;;;1.70;1.60;;;15.70;99.90;;;;;;10486596;28;20288;-79
2023/10/21 08:48:45;;;;;;;1.70;1.60;;;15.70;99.90;;;;;;10457969;28;20729;-79
2023/10/21 08:54:08;;;;;;;1.80;1.70;;;15.70;99.90;;;;;;10490031;28;20221;-79
2023/10/21 08:59:32;;;;;;;1.70;1.60;;;15.70;99.90;;;;;;10453671;28;20232;-80
2023/10/21 09:04:54;;;;;;;1.10;1.00;;;15.70;99.90;;;;;;10492746;28;20279;-79
2023/10/21 09:10:17;;;;;;;1.20;1.13;;;15.90;99.90;;;;;;10486449;28;20575;-79
2023/10/21 09:15:42;;;;;;;1.17;1.10;;;16.00;99.90;;;;;;10536073;23;20235;-80
2023/10/21 09:21:05;;;;;;;1.27;1.10;;;16.10;99.90;;;;;;10531310;28;20193;-80
2023/10/21 09:26:32;;;;;;;1.27;1.17;;;16.20;99.90;;;;;;10462569;28;20240;-81
2023/10/21 09:31:57;;;;;;;1.33;1.23;;;16.30;99.90;;;;;;10491805;28;20219;-80
2023/10/21 09:37:29;;;;;;;1.33;1.27;;;16.30;99.90;;;;;;10485260;28;20230;-81
2023/10/21 09:42:53;;;;;;;1.93;1.33;;;16.40;99.90;;;;;;10470043;28;20221;-81
2023/10/21 09:48:17;;;;;;;2.87;1.20;;;16.30;99.90;;;;;;10457192;28;20294;-80
2023/10/21 09:53:45;;;;;;;1.17;1.17;;;16.40;99.90;;;;;;10492729;28;20289;-80
2023/10/21 09:59:08;;;;;;;1.10;1.10;;;16.40;99.90;;;;;;10460389;28;20202;-80
2023/10/21 10:04:34;;;;;;;1.23;1.10;;;16.50;99.90;;;;;;10455554;28;20225;-81
2023/10/21 10:09:56;;;;;;;1.60;1.30;;;16.80;99.90;;;;;;10472009;28;20669;-80
2023/10/21 10:15:33;;;;;;;3.40;1.23;;;16.90;99.90;;;;;;10465265;28;20230;-81
2023/10/21 10:20:56;;;;;;;1.80;1.40;;;16.90;99.90;;;;;;10504137;28;20273;-80
2023/10/21 10:26:32;;;;;;;1.03;1.00;;;16.90;99.90;;;;;;10459096;28;20603;-81
2023/10/21 10:32:14;;;;;;;2.20;1.43;;;16.80;99.90;;;;;;10495288;28;20670;-81
2023/10/21 10:37:50;;;;;;;0.90;0.90;;;16.70;99.90;;;;;;10499868;28;20220;-81
2023/10/21 10:43:13;;;;;;;1.20;1.10;;;16.70;99.90;;;;;;10492711;28;20241;-80
2023/10/21 10:48:35;;;;;;;1.73;1.10;;;16.90;99.90;;;;;;10489418;28;20225;-80
2023/10/21 10:54:01;;;;;;;1.20;1.10;;;17.20;99.90;;;;;;10466480;28;20233;-80
2023/10/21 10:59:24;;;;;;;1.13;1.10;;;17.40;99.90;;;;;;10472181;28;20224;-80
2023/10/21 11:04:49;;;;;;;1.00;1.00;;;17.60;99.60;;;;;;10491030;28;20225;-79
2023/10/21 11:10:14;;;;;;;1.50;1.10;;;17.70;99.30;;;;;;10478451;28;20276;-80
2023/10/21 11:15:41;;;;;;;0.90;0.90;;;17.70;98.50;;;;;;10466804;28;21054;-79
2023/10/21 11:21:04;;;;;;;3.40;0.93;;;17.80;98.40;;;;;;10478119;28;20198;-79
2023/10/21 11:26:28;;;;;;;2.90;1.10;;;17.80;98.20;;;;;;10464969;28;20228;-79
2023/10/21 11:31:51;;;;;;;1.63;0.90;;;17.90;97.50;;;;;;10459453;28;20201;-79
2023/10/21 11:37:13;;;;;;;0.80;0.80;;;17.90;96.40;;;;;;10493078;28;20601;-79
2023/10/21 11:42:38;;;;;;;1.33;1.00;;;17.90;96.90;;;;;;10483341;28;20224;-79
2023/10/21 11:48:01;;;;;;;1.13;1.03;;;17.90;97.10;;;;;;10461491;28;20234;-80
2023/10/21 11:53:24;;;;;;;1.20;1.10;;;17.90;95.70;;;;;;10458522;28;20613;-80
2023/10/21 12:10:45;;;;;;;1.20;1.00;;;17.90;95.10;;;;;;10490312;28;20288;-79
2023/10/21 12:28:13;;;;;;;1.10;1.10;;;17.90;95.70;;;;;;10464618;28;20285;-80
2023/10/21 12:39:20;;;;;;;0.80;0.70;;;17.90;95.10;;;;;;10476769;28;20678;-80
2023/10/21 12:44:51;;;;;;;1.67;1.20;;;17.80;94.80;;;;;;10482895;28;20209;-80
2023/10/21 12:50:15;;;;;;;2.13;1.20;;;17.80;95.50;;;;;;10462763;28;20197;-80
2023/10/21 12:55:37;;;;;;;1.20;0.90;;;17.80;95.80;;;;;;10476908;28;20694;-80
2023/10/21 13:01:00;;;;;;;1.10;1.00;;;17.80;94.70;;;;;;10457698;28;20644;-80
2023/10/21 13:06:24;;;;;;;2.60;1.20;;;17.80;96.00;;;;;;10465376;28;20237;-80
2023/10/21 13:11:48;;;;;;;6.63;5.93;;;17.90;95.20;;;;;;10470674;28;20202;-78
2023/10/21 13:17:12;;;;;;;0.80;0.80;;;17.90;94.80;;;;;;10466544;28;20214;-78
2023/10/21 13:22:35;;;;;;;1.77;0.87;;;17.90;93.80;;;;;;10457303;28;20311;-78
2023/10/21 13:27:57;;;;;;;3.93;1.83;;;17.90;95.00;;;;;;10463264;28;20607;-78
2023/10/21 13:33:20;;;;;;;1.00;0.90;;;17.80;95.70;;;;;;10458111;28;20229;-79
2023/10/21 13:38:43;;;;;;;0.80;0.80;;;17.90;95.00;;;;;;10491267;28;20240;-77
2023/10/21 13:44:06;;;;;;;1.10;1.10;;;18.00;95.50;;;;;;10490274;28;20217;-78
2023/10/21 13:49:29;;;;;;;2.27;1.30;;;18.10;94.30;;;;;;10492452;28;20211;-78
2023/10/21 13:54:53;;;;;;;3.00;1.27;;;18.00;93.40;;;;;;10483538;28;20217;-78
2023/10/21 14:06:04;;;;;;;1.10;1.03;;;17.80;93.70;;;;;;10481694;28;20693;-78
2023/10/21 14:11:28;;;;;;;0.90;0.90;;;17.80;93.90;;;;;;10485848;28;20210;-76
2023/10/21 14:16:51;;;;;;;0.80;0.80;;;17.70;93.30;;;;;;10473437;28;20229;-78
2023/10/21 14:22:14;;;;;;;1.30;1.20;;;17.80;93.70;;;;;;10442861;28;20241;-79
2023/10/21 14:27:38;;;;;;;1.37;1.03;;;17.70;93.70;;;;;;10475325;28;20204;-79
2023/10/21 14:33:01;;;;;;;1.13;1.03;;;17.70;93.90;;;;;;10475848;28;20548;-78
2023/10/21 14:38:42;;;;;;;2.30;1.20;;;17.60;93.80;;;;;;10473542;28;20232;-78
2023/10/21 14:44:08;;;;;;;1.17;1.00;;;17.60;93.50;;;;;;10477103;28;20600;-79
2023/10/21 14:49:31;;;;;;;1.73;1.07;;;17.60;94.00;;;;;;10486922;28;20209;-77
2023/10/21 14:54:55;;;;;;;1.23;1.07;;;17.60;94.50;;;;;;10477605;28;20236;-77
2023/10/21 15:00:22;;;;;;;1.23;1.13;;;17.60;94.20;;;;;;10484291;28;20279;-78
2023/10/21 15:05:48;;;;;;;1.03;1.00;;;17.50;95.40;;;;;;10459952;28;20216;-78
2023/10/21 15:11:17;;;;;;;1.60;1.27;;;17.40;95.70;;;;;;10485175;28;20205;-80
2023/10/21 15:16:40;;;;;;;1.40;1.30;;;17.40;97.40;;;;;;10483905;28;20213;-78
2023/10/21 15:22:03;;;;;;;1.83;1.27;;;17.30;96.30;;;;;;10462399;28;20227;-78
2023/10/21 15:27:26;;;;;;;1.33;1.00;;;17.20;96.40;;;;;;10486878;28;20288;-79
2023/10/21 15:32:50;;;;;;;1.37;1.27;;;17.20;96.40;;;;;;10470656;28;20225;-80
2023/10/21 15:38:13;;;;;;;2.33;2.00;;;17.10;97.40;;;;;;10555304;23;20809;-77
2023/10/21 15:43:35;;;;;;;2.23;2.00;;;17.10;97.60;;;;;;10524151;28;20219;-77
2023/10/21 15:48:59;;;;;;;3.23;2.40;;;17.10;97.10;;;;;;10509142;28;20556;-77
2023/10/21 15:54:21;;;;;;;2.30;1.50;;;17.10;97.40;;;;;;10502536;28;20248;-77
2023/10/21 15:59:44;;;;;;;1.97;1.87;;;17.00;98.00;;;;;;10515920;28;20208;-77
2023/10/21 16:05:08;;;;;;;1.87;1.77;;;17.00;98.00;;;;;;10502667;28;20300;-77
2023/10/21 16:10:30;;;;;;;2.30;1.97;;;16.90;98.40;;;;;;10498426;28;20696;-77
2023/10/21 16:15:54;;;;;;;1.90;1.80;;;16.80;98.80;;;;;;10491495;28;20255;-77
2023/10/21 16:21:18;;;;;;;5.23;3.20;;;16.60;98.90;;;;;;10511074;28;20204;-77
2023/10/21 16:26:40;;;;;;;4.13;2.40;;;16.50;98.80;;;;;;10516355;28;20712;-77
2023/10/21 16:32:02;;;;;;;3.23;2.33;;;16.50;98.80;;;;;;10523419;28;20646;-78
2023/10/21 16:37:27;;;;;;;2.40;2.13;;;16.40;98.80;;;;;;10515165;28;20220;-79
2023/10/21 16:42:49;;;;;;;2.00;1.90;;;16.40;99.10;;;;;;10499297;28;20200;-78
2023/10/21 16:48:11;;;;;;;3.90;2.10;;;16.30;99.30;;;;;;10520387;28;20219;-77
2023/10/21 16:53:35;;;;;;;3.50;2.83;;;16.10;99.10;;;;;;10502107;28;20250;-77
2023/10/21 16:58:57;;;;;;;1.90;1.80;;;16.10;99.30;;;;;;10485105;28;20304;-77
2023/10/21 17:04:20;;;;;;;2.57;2.37;;;15.90;99.50;;;;;;10471761;28;20228;-77
2023/10/21 17:09:44;;;;;;;2.90;2.70;;;15.80;99.20;;;;;;10488958;28;20207;-77
2023/10/21 17:15:07;;;;;;;3.10;2.83;;;15.70;99.00;;;;;;10537486;28;20849;-78
2023/10/21 17:20:30;;;;;;;3.43;3.13;;;15.60;99.00;;;;;;10501094;28;20205;-78
2023/10/21 17:25:54;;;;;;;3.80;3.27;;;15.40;99.20;;;;;;10469603;28;20599;-77
2023/10/21 17:31:18;;;;;;;3.80;3.40;;;15.40;99.40;;;;;;10513047;28;20701;-78
2023/10/21 17:36:41;;;;;;;4.17;2.80;;;15.30;99.20;;;;;;10510382;28;20225;-78
2023/10/21 17:42:05;;;;;;;3.83;2.60;;;15.30;99.10;;;;;;10487962;28;20798;-78
2023/10/21 17:47:27;;;;;;;3.27;2.60;;;15.20;99.40;;;;;;10497633;28;20686;-78
2023/10/21 17:52:49;;;;;;;3.40;3.10;;;15.20;99.60;;;;;;10517161;28;20208;-77
2023/10/21 17:58:15;;;;;;;5.33;3.10;;;15.30;99.90;;;;;;10480005;28;20229;-78
2023/10/21 18:03:38;;;;;;;3.30;3.00;;;15.30;99.90;;;;;;10495928;28;20239;-78
2023/10/21 18:09:01;;;;;;;3.00;2.80;;;15.40;99.90;;;;;;10489824;28;20223;-78
2023/10/21 18:14:24;;;;;;;3.83;3.53;;;15.50;99.90;;;;;;10504299;28;20224;-78
2023/10/21 18:19:47;;;;;;;3.30;3.03;;;15.70;99.90;;;;;;10490118;28;20519;-77
2023/10/21 18:25:09;;;;;;;3.10;2.90;;;15.70;99.90;;;;;;10505008;28;20605;-78
2023/10/21 18:30:33;;;;;;;3.10;2.90;;;15.70;99.90;;;;;;10507586;28;20200;-78
2023/10/21 18:35:55;;;;;;;4.60;3.33;;;15.80;99.90;;;;;;10509257;28;20713;-77
2023/10/21 18:41:17;;;;;;;3.40;3.10;;;15.80;99.90;;;;;;10510985;28;20212;-78
2023/10/21 18:46:41;;;;;;;3.43;3.10;;;15.80;99.90;;;;;;10507315;28;20209;-79
2023/10/21 18:52:03;;;;;;;3.37;3.07;;;15.80;99.90;;;;;;10502900;28;20630;-78
2023/10/21 18:57:26;;;;;;;3.13;3.03;;;15.80;99.90;;;;;;10505015;28;20225;-79
2023/10/21 19:02:50;;;;;;;3.40;3.10;;;15.80;99.90;;;;;;10504646;28;20195;-78
2023/10/21 19:08:13;;;;;;;3.60;3.27;;;15.80;99.90;;;;;;10512599;28;20224;-79
2023/10/21 19:13:35;;;;;;;3.37;3.17;;;15.80;99.90;;;;;;10520061;28;20195;-79
2023/10/21 19:19:00;;;;;;;3.63;3.33;;;15.80;99.90;;;;;;10540416;28;20230;-79
2023/10/21 19:24:22;;;;;;;3.63;3.33;;;15.80;99.90;;;;;;10509618;28;20220;-78
2023/10/21 19:29:44;;;;;;;3.77;3.50;;;15.80;99.90;;;;;;10505462;28;20193;-79
2023/10/21 19:35:08;;;;;;;3.13;2.93;;;15.80;99.90;;;;;;10506058;28;20243;-78
2023/10/21 19:40:30;;;;;;;4.07;3.77;;;15.70;99.90;;;;;;10527115;28;20223;-79
2023/10/21 19:45:53;;;;;;;3.30;3.10;;;15.70;99.90;;;;;;10504937;28;20224;-78
2023/10/21 19:51:16;;;;;;;3.73;3.27;;;15.70;99.90;;;;;;10530674;28;20694;-79
2023/10/21 19:56:38;;;;;;;3.90;3.70;;;15.70;99.90;;;;;;10511466;28;20228;-79
2023/10/21 20:02:01;;;;;;;4.43;4.10;;;15.60;99.90;;;;;;10511158;28;20532;-78
2023/10/21 20:07:27;;;;;;;4.10;3.80;;;15.60;99.90;;;;;;10524235;28;20220;-79
2023/10/21 20:12:49;;;;;;;4.30;4.00;;;15.50;99.90;;;;;;10526793;28;20211;-79
2023/10/21 20:18:13;;;;;;;3.90;3.60;;;15.50;99.90;;;;;;10509819;28;20229;-78
2023/10/21 20:23:39;;;;;;;3.77;3.57;;;15.40;99.90;;;;;;10513661;28;20200;-78
2023/10/21 20:29:01;;;;;;;5.47;4.03;;;15.40;99.90;;;;;;10510597;28;20257;-78
2023/10/21 20:34:24;;;;;;;3.40;3.10;;;15.30;99.90;;;;;;10500352;28;20237;-79
2023/10/21 20:39:48;;;;;;;3.57;3.27;;;15.30;99.90;;;;;;10503620;28;20580;-78
2023/10/21 20:45:10;;;;;;;3.40;3.20;;;15.30;99.90;;;;;;10526686;28;20224;-79
2023/10/21 20:50:37;;;;;;;3.70;3.40;;;15.30;99.90;;;;;;10530907;28;20204;-79
2023/10/21 20:56:01;;;;;;;3.53;3.27;;;15.30;99.90;;;;;;10520305;28;20217;-79
2023/10/21 21:01:24;;;;;;;3.10;2.90;;;15.30;99.90;;;;;;10506975;28;20594;-78
2023/10/21 21:06:46;;;;;;;3.53;3.23;;;15.30;99.90;;;;;;10506044;28;20219;-79
2023/10/21 21:12:10;;;;;;;6.73;4.60;;;15.20;99.90;;;;;;10529402;28;20201;-79
2023/10/21 21:17:32;;;;;;;3.27;3.07;;;15.20;99.90;;;;;;10507990;28;20599;-78
2023/10/21 21:22:55;;;;;;;3.70;3.50;;;15.10;99.90;;;;;;10491433;28;20665;-78
2023/10/21 21:28:18;;;;;;;3.13;3.03;;;15.10;99.90;;;;;;10528306;28;20212;-78
2023/10/21 21:33:40;;;;;;;10.10;9.10;;;15.10;99.90;;;;;;10501379;28;20204;-78
2023/10/21 21:39:04;;;;;;;4.20;3.87;;;15.00;99.90;;;;;;10551549;22;20314;-81
2023/10/21 21:44:28;;;;;;;3.20;3.10;;;14.90;99.90;;;;;;10552072;28;20631;-80
2023/10/21 21:49:50;;;;;;;4.10;3.80;;;14.80;99.90;;;;;;10561409;28;20221;-81
2023/10/21 21:55:12;;;;;;;3.33;3.13;;;14.80;99.90;;;;;;10562041;28;20206;-81
2023/10/21 22:00:42;;;;;;;4.07;3.77;;;14.70;99.90;;;;;;10538196;28;20220;-81
2023/10/21 22:06:05;;;;;;;2.80;2.67;;;14.60;99.90;;;;;;10567293;28;20212;-79
2023/10/21 22:11:27;;;;;;;4.40;4.10;;;14.50;99.90;;;;;;10582582;28;20203;-81
2023/10/21 22:16:51;;;;;;;3.10;2.90;;;14.50;99.90;;;;;;10527978;28;20228;-81
2023/10/21 22:22:13;;;;;;;3.30;3.00;;;14.40;99.90;;;;;;10582160;28;20199;-80
2023/10/21 22:27:37;;;;;;;3.63;3.00;;;14.30;99.90;;;;;;10563221;28;20349;-80
2023/10/21 22:33:00;;;;;;;3.30;3.10;;;14.20;99.90;;;;;;10539877;28;20720;-80
2023/10/21 22:38:22;;;;;;;3.47;3.17;;;14.20;99.90;;;;;;10562511;28;20223;-81
2023/10/21 22:43:45;;;;;;;3.00;2.80;;;14.20;99.90;;;;;;10537592;28;20215;-81
2023/10/21 22:49:08;;;;;;;3.60;3.30;;;14.10;99.90;;;;;;10573667;28;20220;-81
2023/10/21 22:54:30;;;;;;;3.67;3.47;;;14.10;99.90;;;;;;10543299;28;20207;-80
2023/10/21 22:59:54;;;;;;;3.87;3.50;;;14.10;99.90;;;;;;10546450;28;20264;-79
2023/10/21 23:05:18;;;;;;;3.70;3.40;;;14.10;99.90;;;;;;10565572;28;20200;-80
2023/10/21 23:10:40;;;;;;;2.77;2.67;;;14.10;99.90;;;;;;10554467;28;20215;-81
2023/10/21 23:16:03;;;;;;;3.30;3.00;;;14.10;99.90;;;;;;10561542;28;20232;-79
2023/10/21 23:21:26;;;;;;;2.60;2.50;;;14.10;99.90;;;;;;10543098;28;20291;-79
2023/10/21 23:26:48;;;;;;;3.97;3.33;;;14.10;99.90;;;;;;10561448;28;20207;-81
2023/10/21 23:32:10;;;;;;;3.30;3.10;;;14.10;99.90;;;;;;10554898;28;20658;-81
2023/10/21 23:37:35;;;;;;;3.30;3.10;;;14.10;99.90;;;;;;10555945;28;20237;-81
2023/10/21 23:42:58;;;;;;;3.73;3.43;;;14.10;99.90;;;;;;10549502;28;20360;-80
2023/10/21 23:48:20;;;;;;;3.33;3.13;;;14.10;99.90;;;;;;10544504;28;20220;-81
2023/10/21 23:53:44;;;;;;;3.30;3.00;;;14.00;99.90;;;;;;10577723;28;20200;-81
2023/10/21 23:59:06;;;;;;;3.80;3.60;;;13.90;99.90;;;;;;10541184;28;20282;-81
